createdAt,value
2022-10-10T00:00:10.906Z,22
2022-10-10T00:15:03.027Z,22
2022-10-10T00:30:06.134Z,22.0
2022-10-10T00:45:02.349Z,22.0
2022-10-10T01:00:04.517Z,22.0
2022-10-10T01:15:02.679Z,22.1
2022-10-10T01:30:04.519Z,22.0
2022-10-10T01:45:03.896Z,22.0
2022-10-10T02:00:06.370Z,22.0
2022-10-10T02:15:02.166Z,22.0
2022-10-10T02:30:06.130Z,22.0
2022-10-10T02:45:04.245Z,22
2022-10-10T03:00:03.244Z,22
2022-10-10T03:15:07.988Z,22
2022-10-10T03:30:06.586Z,22
2022-10-10T03:45:04.412Z,22
2022-10-10T04:00:08.912Z,22
2022-10-10T04:15:04.726Z,22
2022-10-10T04:30:06.549Z,22
2022-10-10T04:45:02.913Z,22
2022-10-10T05:00:04.240Z,22
2022-10-10T05:15:04.062Z,22
2022-10-10T05:30:09.889Z,22
2022-10-10T05:45:05.678Z,22
2022-10-10T06:00:04.931Z,22.1
2022-10-10T06:15:05.861Z,22.3
2022-10-10T06:30:07.124Z,22.3
2022-10-10T06:45:02.552Z,22.4
2022-10-10T07:00:08.518Z,22.5
2022-10-10T07:15:05.135Z,22.6
2022-10-10T07:30:05.654Z,22.6
2022-10-10T07:45:06.872Z,22.8
2022-10-10T08:00:09.655Z,22.8
2022-10-10T08:15:03.985Z,22.9
2022-10-10T08:30:04.608Z,23.0
2022-10-10T08:45:03.477Z,23.1
2022-10-10T09:00:06.651Z,23.1
2022-10-10T09:15:04.096Z,23.3
2022-10-10T09:30:08.147Z,23.3
2022-10-10T09:45:05.164Z,23.4
2022-10-10T10:00:05.929Z,23.5
2022-10-10T10:15:03.503Z,23.6
2022-10-10T10:30:04.345Z,23.6
2022-10-10T10:45:04.629Z,23.7
2022-10-10T11:00:16.873Z,23.9
2022-10-10T11:15:05.558Z,24.1
2022-10-10T11:30:04.960Z,24.3
2022-10-10T11:45:02.519Z,24.4
2022-10-10T12:00:10.551Z,24.5
2022-10-10T12:15:04.325Z,24.7
2022-10-10T12:30:11.091Z,24.8
2022-10-10T12:45:03.869Z,24.9
2022-10-10T13:00:09.337Z,24.9
2022-10-10T13:15:03.089Z,24.9
2022-10-10T13:30:09.694Z,24.8
2022-10-10T13:45:02.416Z,24.7
2022-10-10T14:00:08.444Z,24.6
2022-10-10T14:15:03.024Z,24.6
2022-10-10T14:30:10.627Z,24.5
2022-10-10T14:45:02.643Z,24.5
2022-10-10T15:00:08.987Z,24.4
2022-10-10T15:15:05.570Z,24.4
2022-10-10T15:30:05.948Z,24.4
2022-10-10T15:45:03.389Z,24.3
2022-10-10T16:00:05.972Z,24.2
2022-10-10T16:15:07.027Z,24.1
2022-10-10T16:30:05.708Z,24
2022-10-10T16:45:03.991Z,23.9
2022-10-10T17:00:07.007Z,23.8
2022-10-10T17:15:05.082Z,23.7
2022-10-10T17:30:06.524Z,23.7
2022-10-10T17:45:02.796Z,23.6
2022-10-10T18:00:09.824Z,23.5
2022-10-10T18:15:06.643Z,23.4
2022-10-10T18:30:07.067Z,23.3
2022-10-10T18:45:05.196Z,23.3
2022-10-10T19:00:09.002Z,23.1
2022-10-10T19:15:03.612Z,23.1
2022-10-10T19:30:05.605Z,23.0
2022-10-10T19:45:03.496Z,22.9
2022-10-10T20:00:04.890Z,22.8
2022-10-10T20:15:02.156Z,22.8
2022-10-10T20:30:05.589Z,22.7
2022-10-10T20:45:07.046Z,22.7
2022-10-10T21:00:07.918Z,22.7
2022-10-10T21:15:02.684Z,22.6
2022-10-10T21:30:05.261Z,22.6
2022-10-10T21:45:02.062Z,22.6
2022-10-10T22:00:05.670Z,22.5
2022-10-10T22:15:03.388Z,22.5
2022-10-10T22:30:06.148Z,22.5
2022-10-10T22:45:02.903Z,22.5
2022-10-10T23:00:05.546Z,22.5
2022-10-10T23:15:06.631Z,22.5
2022-10-10T23:30:01.764Z,22.4
2022-10-10T23:45:04.108Z,22.4
